Time;durP1;ratioP1;P1;durP2;ratioP2;P2;SDS_P1;SDS_P2;PMS_P1;PMS_P2;Temp;Humidity;BMP_temperature;BMP_pressure;BME280_temperature;BME280_humidity;BME280_pressure;Samples;Min_cycle;Max_cycle;Signal;HPM_P1;HPM_P2
2023/10/31 00:01:25;;;;;;;0.53;0.53;;;10.10;99.90;;;;;;4993495;28;20249;-59
2023/10/31 00:03:52;;;;;;;0.23;0.23;;;10.10;99.90;;;;;;4992987;28;20224;-59
2023/10/31 00:06:23;;;;;;;0.50;0.43;;;10.10;99.90;;;;;;4989119;28;20611;-58
2023/10/31 00:08:51;;;;;;;1.47;0.20;;;10.10;99.90;;;;;;4980113;28;20202;-58
2023/10/31 00:11:18;;;;;;;1.20;1.20;;;10.10;99.90;;;;;;4981732;28;20230;-58
2023/10/31 00:13:45;;;;;;;0.20;0.20;;;10.10;99.90;;;;;;4992899;28;20279;-58
2023/10/31 00:16:12;;;;;;;0.10;0.10;;;10.10;99.90;;;;;;4990595;28;20764;-58
2023/10/31 00:18:39;;;;;;;0.40;0.17;;;10.30;99.90;;;;;;4978241;28;20255;-59
2023/10/31 00:21:06;;;;;;;0.10;0.10;;;10.20;99.90;;;;;;4973835;28;20246;-59
2023/10/31 00:23:33;;;;;;;0.10;0.10;;;10.20;99.90;;;;;;4971485;28;20267;-59
2023/10/31 00:26:02;;;;;;;0.57;0.10;;;10.20;99.90;;;;;;4970086;28;20202;-58
2023/10/31 00:28:29;;;;;;;1.77;0.20;;;10.30;99.90;;;;;;4973349;28;20213;-59
2023/10/31 00:30:56;;;;;;;0.10;0.10;;;10.20;99.90;;;;;;4973531;28;20268;-59
2023/10/31 00:33:23;;;;;;;0.17;0.17;;;10.20;99.90;;;;;;4972913;28;20239;-58
2023/10/31 00:35:49;;;;;;;0.60;0.20;;;10.20;99.90;;;;;;4974806;28;20227;-59
2023/10/31 00:38:16;;;;;;;0.10;0.10;;;10.20;99.90;;;;;;4977743;28;20203;-58
2023/10/31 00:40:43;;;;;;;0.30;0.03;;;10.20;99.90;;;;;;4972680;28;20206;-59
2023/10/31 00:43:12;;;;;;;0.83;0.17;;;10.20;99.90;;;;;;4979319;28;20235;-59
2023/10/31 00:45:38;;;;;;;0.10;0.10;;;10.20;99.90;;;;;;4989751;28;20203;-59
2023/10/31 00:48:06;;;;;;;0.00;0.00;;;10.20;99.90;;;;;;4984489;28;20207;-59
2023/10/31 00:50:33;;;;;;;0.27;0.27;;;10.20;99.90;;;;;;4992566;28;20216;-59
2023/10/31 00:53:00;;;;;;;0.30;0.20;;;10.20;99.90;;;;;;4992467;28;20678;-59
2023/10/31 00:55:27;;;;;;;0.10;0.10;;;10.20;99.90;;;;;;4974415;28;20235;-59
2023/10/31 00:57:54;;;;;;;0.20;0.20;;;10.20;99.90;;;;;;4967330;28;20258;-59
2023/10/31 01:00:22;;;;;;;0.10;0.10;;;10.20;99.90;;;;;;4977457;28;20206;-59
2023/10/31 01:02:49;;;;;;;0.20;0.20;;;10.20;99.90;;;;;;4992635;28;20287;-59
2023/10/31 01:05:16;;;;;;;0.60;0.20;;;10.20;99.90;;;;;;4990667;28;20226;-59
2023/10/31 01:07:43;;;;;;;0.83;0.20;;;10.20;99.90;;;;;;4980888;28;20640;-59
2023/10/31 01:10:11;;;;;;;0.43;0.13;;;10.20;99.90;;;;;;4987616;28;20722;-59
2023/10/31 01:12:38;;;;;;;0.17;0.10;;;10.10;99.90;;;;;;4992269;28;20281;-59
2023/10/31 01:15:06;;;;;;;0.10;0.10;;;10.10;99.90;;;;;;4978901;28;20249;-59
2023/10/31 01:17:34;;;;;;;0.10;0.10;;;10.10;99.90;;;;;;4979856;28;20210;-59
2023/10/31 01:20:02;;;;;;;0.00;0.00;;;10.10;99.90;;;;;;4986641;28;20213;-59
2023/10/31 01:22:29;;;;;;;0.00;0.00;;;10.10;99.90;;;;;;4992174;28;20202;-59
2023/10/31 01:24:55;;;;;;;0.20;0.00;;;10.00;99.90;;;;;;4980941;28;20393;-59
2023/10/31 01:27:22;;;;;;;0.00;0.00;;;10.00;99.90;;;;;;4980403;28;20210;-59
2023/10/31 01:29:50;;;;;;;0.07;0.03;;;10.00;99.90;;;;;;4982798;28;20206;-59
2023/10/31 01:32:18;;;;;;;0.07;0.00;;;9.90;99.90;;;;;;4983372;28;20202;-59
2023/10/31 01:34:46;;;;;;;0.00;0.00;;;9.90;99.90;;;;;;4980400;28;20219;-59
2023/10/31 01:37:14;;;;;;;0.20;0.00;;;9.80;99.90;;;;;;4979515;28;20202;-59
2023/10/31 01:39:41;;;;;;;0.10;0.10;;;9.80;99.90;;;;;;4984109;28;20209;-59
2023/10/31 01:42:08;;;;;;;0.00;0.00;;;9.70;99.90;;;;;;4992130;28;20210;-59
2023/10/31 01:44:35;;;;;;;0.77;0.20;;;9.70;99.90;;;;;;4991705;28;20317;-59
2023/10/31 01:47:02;;;;;;;0.13;0.13;;;9.70;99.90;;;;;;4970562;28;20858;-59
2023/10/31 01:49:29;;;;;;;0.10;0.00;;;9.70;99.90;;;;;;4973144;28;20620;-59
2023/10/31 01:51:58;;;;;;;0.00;0.00;;;9.70;99.90;;;;;;4979013;28;20210;-59
2023/10/31 01:54:25;;;;;;;0.10;0.03;;;9.70;99.90;;;;;;4972307;28;20231;-60
2023/10/31 01:56:55;;;;;;;0.00;0.00;;;9.70;99.90;;;;;;4975341;28;20234;-59
2023/10/31 01:59:23;;;;;;;0.00;0.00;;;9.80;99.90;;;;;;4984055;28;20206;-59
2023/10/31 02:01:50;;;;;;;0.10;0.10;;;9.70;99.90;;;;;;4984961;28;20205;-59
2023/10/31 02:04:17;;;;;;;0.10;0.10;;;9.70;99.90;;;;;;4983288;28;20228;-59
2023/10/31 02:06:45;;;;;;;0.20;0.10;;;9.80;99.90;;;;;;4991760;28;20207;-59
2023/10/31 02:09:13;;;;;;;0.00;0.00;;;9.80;99.90;;;;;;4978955;28;20207;-59
2023/10/31 02:11:40;;;;;;;0.10;0.10;;;9.70;99.90;;;;;;4983008;28;20253;-59
2023/10/31 02:14:07;;;;;;;1.57;0.10;;;9.70;99.90;;;;;;4991452;28;20225;-59
2023/10/31 02:16:34;;;;;;;0.00;0.00;;;9.70;99.90;;;;;;4991686;28;20304;-59
2023/10/31 02:19:01;;;;;;;0.57;0.20;;;9.60;99.90;;;;;;4978665;28;20249;-59
2023/10/31 02:21:30;;;;;;;0.10;0.00;;;9.60;99.90;;;;;;4973141;28;20255;-59
2023/10/31 02:24:00;;;;;;;0.00;0.00;;;9.60;99.90;;;;;;4976697;28;20230;-59
2023/10/31 02:26:30;;;;;;;0.00;0.00;;;9.70;99.90;;;;;;4991851;28;20200;-59
2023/10/31 02:28:57;;;;;;;0.10;0.10;;;9.70;99.90;;;;;;4991787;28;20260;-58
2023/10/31 02:31:24;;;;;;;0.00;0.00;;;9.70;99.90;;;;;;4985408;28;20216;-60
2023/10/31 02:33:51;;;;;;;0.00;0.00;;;9.60;99.90;;;;;;4970582;28;20237;-58
2023/10/31 02:36:22;;;;;;;0.73;0.00;;;9.60;99.90;;;;;;4971790;28;20214;-59
2023/10/31 02:38:48;;;;;;;0.10;0.10;;;9.60;99.90;;;;;;4972424;28;20207;-59
2023/10/31 02:41:17;;;;;;;0.20;0.00;;;9.60;99.90;;;;;;4970397;28;20210;-59
2023/10/31 02:43:44;;;;;;;0.63;0.23;;;9.70;99.90;;;;;;4979211;28;20226;-59
2023/10/31 02:46:12;;;;;;;0.37;0.10;;;9.70;99.90;;;;;;4975368;28;20199;-59
2023/10/31 02:48:39;;;;;;;0.43;0.10;;;9.80;99.90;;;;;;4983579;28;20209;-59
2023/10/31 02:51:07;;;;;;;0.97;0.00;;;9.70;99.90;;;;;;4995301;28;20672;-60
2023/10/31 02:53:34;;;;;;;0.00;0.00;;;9.70;99.90;;;;;;4993019;28;20259;-59
2023/10/31 02:56:01;;;;;;;0.10;0.10;;;9.70;99.90;;;;;;4983820;28;20215;-60
2023/10/31 02:58:29;;;;;;;0.10;0.10;;;9.60;99.90;;;;;;4993006;28;20626;-59
2023/10/31 03:00:57;;;;;;;0.53;0.10;;;9.60;99.90;;;;;;4994148;28;20206;-59
2023/10/31 03:03:23;;;;;;;0.00;0.00;;;9.60;99.90;;;;;;4983714;28;20261;-59
2023/10/31 03:05:50;;;;;;;0.20;0.07;;;9.60;99.90;;;;;;4995241;28;20202;-59
2023/10/31 03:08:20;;;;;;;0.00;0.00;;;9.60;99.90;;;;;;4983817;28;20331;-59
2023/10/31 03:10:50;;;;;;;0.10;0.10;;;9.60;99.90;;;;;;4975427;28;20587;-58
2023/10/31 03:13:17;;;;;;;0.77;0.10;;;9.60;99.90;;;;;;4975469;28;20258;-60
2023/10/31 03:15:46;;;;;;;0.00;0.00;;;9.60;99.90;;;;;;4974909;28;20602;-60
2023/10/31 03:18:14;;;;;;;0.60;0.00;;;9.60;99.90;;;;;;4981317;28;20678;-60
2023/10/31 03:20:41;;;;;;;0.10;0.10;;;9.60;99.90;;;;;;4976629;28;20211;-60
2023/10/31 03:23:08;;;;;;;0.40;0.10;;;9.60;99.90;;;;;;4980171;28;20254;-59
2023/10/31 03:25:35;;;;;;;0.03;0.03;;;9.60;99.90;;;;;;4975050;28;20204;-61
2023/10/31 03:28:02;;;;;;;0.73;0.00;;;9.60;99.90;;;;;;4975297;28;20223;-60
2023/10/31 03:30:29;;;;;;;0.40;0.10;;;9.60;99.90;;;;;;4974619;28;20208;-60
2023/10/31 03:32:57;;;;;;;0.33;0.10;;;9.60;99.90;;;;;;4973208;28;20675;-60
2023/10/31 03:35:24;;;;;;;0.10;0.00;;;9.60;99.90;;;;;;4974639;28;20586;-60
2023/10/31 03:37:51;;;;;;;0.00;0.00;;;9.60;99.90;;;;;;4975169;28;20258;-60
2023/10/31 03:40:18;;;;;;;0.40;0.40;;;9.50;99.90;;;;;;4997436;23;20242;-61
2023/10/31 03:42:45;;;;;;;0.00;0.00;;;9.60;99.90;;;;;;4975437;28;20203;-60
2023/10/31 03:45:12;;;;;;;0.00;0.00;;;9.60;99.90;;;;;;4972179;28;20203;-61
2023/10/31 03:47:39;;;;;;;0.00;0.00;;;9.60;99.90;;;;;;4974474;28;20203;-61
2023/10/31 03:50:09;;;;;;;0.37;0.10;;;9.70;99.90;;;;;;4974518;28;20780;-61
2023/10/31 03:52:36;;;;;;;0.20;0.10;;;9.60;99.90;;;;;;4957450;28;20290;-61
2023/10/31 03:55:03;;;;;;;0.57;0.00;;;9.60;99.90;;;;;;4968459;28;20214;-60
2023/10/31 03:57:30;;;;;;;0.00;0.00;;;9.60;99.90;;;;;;4973455;28;20256;-60
2023/10/31 03:59:57;;;;;;;0.10;0.00;;;9.60;99.90;;;;;;4961089;28;20211;-60
2023/10/31 04:02:24;;;;;;;0.13;0.10;;;9.60;99.90;;;;;;4955855;28;20931;-61
2023/10/31 04:04:51;;;;;;;0.00;0.00;;;9.60;99.90;;;;;;4981783;28;20253;-60
2023/10/31 04:07:19;;;;;;;0.00;0.00;;;9.60;99.90;;;;;;4958712;28;20278;-61
2023/10/31 04:09:46;;;;;;;0.10;0.10;;;9.60;99.90;;;;;;4968853;28;20273;-60
2023/10/31 04:12:13;;;;;;;0.53;0.13;;;9.60;99.90;;;;;;4967682;28;20205;-61
2023/10/31 04:14:40;;;;;;;0.50;0.50;;;9.60;99.90;;;;;;4955380;29;20204;-61
2023/10/31 04:17:07;;;;;;;0.00;0.00;;;9.60;99.90;;;;;;4955484;29;20294;-60
2023/10/31 04:19:34;;;;;;;1.30;0.10;;;9.50;99.90;;;;;;4973862;28;20202;-61
2023/10/31 04:22:01;;;;;;;0.93;0.10;;;9.50;99.90;;;;;;4970221;28;20224;-61
2023/10/31 04:24:31;;;;;;;0.10;0.10;;;9.50;99.90;;;;;;4974142;28;20205;-61
2023/10/31 04:26:58;;;;;;;0.80;0.10;;;9.50;99.90;;;;;;4974288;28;20683;-61
2023/10/31 04:29:25;;;;;;;0.03;0.03;;;9.50;99.90;;;;;;4974331;28;20209;-60
2023/10/31 04:31:51;;;;;;;0.07;0.00;;;9.50;99.90;;;;;;4975395;28;20223;-61
2023/10/31 04:34:18;;;;;;;1.23;0.10;;;9.50;99.90;;;;;;4974214;28;20202;-60
2023/10/31 04:36:45;;;;;;;0.20;0.10;;;9.50;99.90;;;;;;4971587;28;20223;-60
2023/10/31 04:39:12;;;;;;;0.20;0.10;;;9.50;99.90;;;;;;4974363;28;20212;-60
2023/10/31 04:41:41;;;;;;;1.07;0.10;;;9.40;99.90;;;;;;4974836;28;20292;-61
2023/10/31 04:44:08;;;;;;;0.20;0.03;;;9.40;99.90;;;;;;4973600;28;20211;-61
2023/10/31 04:46:35;;;;;;;0.10;0.10;;;9.40;99.90;;;;;;4973943;28;20663;-61
2023/10/31 04:49:02;;;;;;;0.10;0.10;;;9.50;99.90;;;;;;4973976;28;20745;-60
2023/10/31 04:51:33;;;;;;;0.10;0.10;;;9.40;99.90;;;;;;4977140;28;20241;-61
2023/10/31 04:54:00;;;;;;;0.10;0.10;;;9.40;99.90;;;;;;4972313;28;20201;-61
2023/10/31 04:56:27;;;;;;;0.10;0.10;;;9.40;99.90;;;;;;4970056;28;20226;-61
2023/10/31 04:58:55;;;;;;;0.20;0.10;;;9.40;99.90;;;;;;4973991;28;20231;-61
2023/10/31 05:01:22;;;;;;;0.37;0.10;;;9.50;99.90;;;;;;4973457;28;20225;-61
2023/10/31 05:03:49;;;;;;;0.30;0.10;;;9.50;99.90;;;;;;4973374;28;20726;-61
2023/10/31 05:06:23;;;;;;;0.30;0.23;;;9.40;99.90;;;;;;4973830;28;20203;-60
2023/10/31 05:08:49;;;;;;;0.23;0.20;;;9.50;99.90;;;;;;4971721;28;20202;-61
2023/10/31 05:11:18;;;;;;;0.10;0.10;;;9.50;99.90;;;;;;4973160;28;20610;-60
2023/10/31 05:13:45;;;;;;;0.20;0.20;;;9.50;99.90;;;;;;4973078;28;20208;-61
2023/10/31 05:16:13;;;;;;;0.20;0.20;;;9.50;99.90;;;;;;4973326;28;20223;-61
2023/10/31 05:18:40;;;;;;;0.63;0.10;;;9.50;99.90;;;;;;4973201;28;20205;-60
2023/10/31 05:21:07;;;;;;;0.10;0.10;;;9.50;99.90;;;;;;4973490;28;20273;-60
2023/10/31 05:23:34;;;;;;;0.57;0.17;;;9.50;99.90;;;;;;4971942;28;20206;-60
2023/10/31 05:26:01;;;;;;;0.10;0.10;;;9.50;99.90;;;;;;4973271;28;20261;-61
2023/10/31 05:28:28;;;;;;;0.73;0.23;;;9.50;99.90;;;;;;4973677;28;20210;-61
2023/10/31 05:30:55;;;;;;;0.10;0.10;;;9.50;99.90;;;;;;4973359;28;20220;-61
2023/10/31 05:33:24;;;;;;;0.10;0.10;;;9.40;99.90;;;;;;4972966;28;20206;-61
2023/10/31 05:35:51;;;;;;;0.10;0.10;;;9.40;99.90;;;;;;4967606;28;20236;-60
2023/10/31 05:38:18;;;;;;;0.10;0.07;;;9.40;99.90;;;;;;4973047;28;20306;-61
2023/10/31 05:40:45;;;;;;;0.67;0.20;;;9.30;99.90;;;;;;4971896;28;20653;-61
2023/10/31 05:43:12;;;;;;;0.10;0.10;;;9.30;99.90;;;;;;4965603;28;20262;-60
2023/10/31 05:45:39;;;;;;;1.30;0.20;;;9.30;99.90;;;;;;4972817;28;20208;-61
2023/10/31 05:48:06;;;;;;;0.23;0.20;;;9.30;99.90;;;;;;4973229;28;20336;-61
2023/10/31 05:50:35;;;;;;;0.37;0.20;;;9.30;99.90;;;;;;4971695;28;20235;-61
2023/10/31 05:53:02;;;;;;;2.07;1.37;;;9.30;99.90;;;;;;4968902;28;20266;-61
2023/10/31 05:55:29;;;;;;;1.40;1.07;;;9.30;99.90;;;;;;4971427;28;20204;-61
2023/10/31 05:57:56;;;;;;;3.03;0.90;;;9.30;99.90;;;;;;4972647;28;20220;-61
2023/10/31 06:00:23;;;;;;;0.63;0.63;;;9.30;99.90;;;;;;4972505;28;20236;-61
2023/10/31 06:02:50;;;;;;;1.00;0.77;;;9.30;99.90;;;;;;4965140;28;20290;-60
2023/10/31 06:05:17;;;;;;;1.70;0.90;;;9.30;99.90;;;;;;4972382;28;20204;-60
2023/10/31 06:07:46;;;;;;;2.20;1.00;;;9.30;99.90;;;;;;4971610;28;20269;-61
2023/10/31 06:10:13;;;;;;;1.63;1.00;;;9.40;99.90;;;;;;4970569;28;20231;-61
2023/10/31 06:12:40;;;;;;;0.60;0.60;;;9.40;99.90;;;;;;4969893;28;20260;-61
2023/10/31 06:15:09;;;;;;;3.40;0.60;;;9.40;99.90;;;;;;4972277;28;20683;-61
2023/10/31 06:17:36;;;;;;;0.50;0.50;;;9.30;99.90;;;;;;4972418;28;20231;-61
2023/10/31 06:20:03;;;;;;;3.60;1.00;;;9.30;99.90;;;;;;4972578;28;20227;-60
2023/10/31 06:22:30;;;;;;;0.80;0.80;;;9.30;99.90;;;;;;4972406;28;20236;-61
2023/10/31 06:24:59;;;;;;;0.40;0.40;;;9.30;99.90;;;;;;4975816;28;20205;-60
2023/10/31 06:27:26;;;;;;;0.60;0.60;;;9.40;99.90;;;;;;4976301;28;20297;-61
2023/10/31 06:29:55;;;;;;;0.40;0.40;;;9.30;99.90;;;;;;4974018;28;20253;-61
2023/10/31 06:32:22;;;;;;;1.40;0.60;;;9.30;99.90;;;;;;4977703;28;20229;-61
2023/10/31 06:34:49;;;;;;;0.40;0.40;;;9.30;99.90;;;;;;4966572;28;20202;-60
2023/10/31 06:37:16;;;;;;;0.47;0.47;;;9.30;99.90;;;;;;4976417;28;20223;-61
2023/10/31 06:39:43;;;;;;;0.50;0.50;;;9.30;99.90;;;;;;4975814;28;20207;-61
2023/10/31 06:42:11;;;;;;;0.40;0.40;;;9.30;99.90;;;;;;4972585;28;20258;-61
2023/10/31 06:44:38;;;;;;;0.43;0.43;;;9.30;99.90;;;;;;4975509;28;20206;-61
2023/10/31 06:47:06;;;;;;;0.53;0.53;;;9.30;99.90;;;;;;4975350;28;20204;-61
2023/10/31 06:49:32;;;;;;;0.90;0.90;;;9.30;99.90;;;;;;4975989;28;20242;-61
2023/10/31 06:51:59;;;;;;;0.90;0.83;;;9.30;99.90;;;;;;4976048;28;20235;-61
2023/10/31 06:54:26;;;;;;;4.43;2.77;;;9.30;99.90;;;;;;4975959;28;20207;-61
2023/10/31 06:56:53;;;;;;;2.67;2.47;;;9.40;99.90;;;;;;4976009;28;20235;-61
2023/10/31 06:59:22;;;;;;;0.73;0.73;;;9.40;99.90;;;;;;4975842;28;20264;-61
2023/10/31 07:01:49;;;;;;;0.40;0.40;;;9.40;99.90;;;;;;4975770;28;20227;-61
2023/10/31 07:04:16;;;;;;;0.30;0.30;;;9.40;99.90;;;;;;4974722;28;20211;-61
2023/10/31 07:06:43;;;;;;;0.30;0.30;;;9.40;99.90;;;;;;4975915;28;20214;-61
2023/10/31 07:09:10;;;;;;;0.30;0.30;;;9.40;99.90;;;;;;4976023;28;20251;-61
2023/10/31 07:11:37;;;;;;;1.90;0.50;;;9.40;99.90;;;;;;4975529;28;20718;-61
2023/10/31 07:14:04;;;;;;;1.20;0.30;;;9.50;99.90;;;;;;4974528;28;20731;-61
2023/10/31 07:16:33;;;;;;;0.60;0.40;;;9.50;99.90;;;;;;4975001;28;20302;-61
2023/10/31 07:19:00;;;;;;;0.50;0.33;;;9.40;99.90;;;;;;4983318;28;20253;-61
2023/10/31 07:21:27;;;;;;;1.60;0.40;;;9.50;99.90;;;;;;4978373;28;20638;-61
2023/10/31 07:23:55;;;;;;;0.30;0.30;;;9.50;99.90;;;;;;4975533;28;20261;-61
2023/10/31 07:26:23;;;;;;;0.87;0.40;;;9.50;99.90;;;;;;4975617;28;20292;-61
2023/10/31 07:28:50;;;;;;;2.60;0.43;;;9.60;99.90;;;;;;4974536;28;20199;-61
2023/10/31 07:31:17;;;;;;;0.33;0.33;;;9.60;99.90;;;;;;4972953;28;20369;-61
2023/10/31 07:33:46;;;;;;;0.37;0.20;;;9.60;99.90;;;;;;4975282;28;20265;-61
2023/10/31 07:36:13;;;;;;;0.30;0.30;;;9.60;99.90;;;;;;4969113;28;20200;-61
2023/10/31 07:38:40;;;;;;;0.83;0.40;;;9.60;99.90;;;;;;4956215;29;20274;-61
2023/10/31 07:41:07;;;;;;;1.60;0.40;;;9.60;99.90;;;;;;4966072;28;20231;-61
2023/10/31 07:43:34;;;;;;;0.23;0.20;;;9.70;99.90;;;;;;4957723;28;20770;-61
2023/10/31 07:46:01;;;;;;;0.57;0.30;;;9.60;99.90;;;;;;4956443;29;20238;-61
2023/10/31 07:48:28;;;;;;;0.30;0.30;;;9.60;99.90;;;;;;4956104;29;20207;-60
2023/10/31 07:50:57;;;;;;;0.73;0.30;;;9.70;99.90;;;;;;4964293;28;20258;-61
2023/10/31 07:53:24;;;;;;;0.50;0.27;;;9.70;99.90;;;;;;4967331;28;20278;-61
2023/10/31 07:55:51;;;;;;;1.63;0.23;;;9.70;99.90;;;;;;4978590;28;20251;-61
2023/10/31 07:58:17;;;;;;;0.27;0.27;;;9.70;99.90;;;;;;4959718;28;20223;-67
2023/10/31 08:00:44;;;;;;;3.20;0.43;;;9.80;99.90;;;;;;4961384;28;20235;-61
2023/10/31 08:03:11;;;;;;;1.47;0.20;;;9.80;99.90;;;;;;4968873;28;20204;-71
2023/10/31 08:05:38;;;;;;;0.20;0.20;;;9.80;99.90;;;;;;4974186;28;20212;-68
2023/10/31 08:08:07;;;;;;;0.60;0.50;;;9.80;99.90;;;;;;4974343;28;20626;-67
2023/10/31 08:10:34;;;;;;;0.20;0.20;;;9.90;99.90;;;;;;4974510;28;20722;-66
2023/10/31 08:13:01;;;;;;;0.30;0.30;;;9.90;99.90;;;;;;4973562;28;20210;-67
2023/10/31 08:15:28;;;;;;;2.00;0.40;;;9.90;99.90;;;;;;4974122;28;20682;-67
2023/10/31 08:17:55;;;;;;;0.20;0.20;;;9.90;99.90;;;;;;4975093;28;20273;-66
2023/10/31 08:20:22;;;;;;;0.73;0.37;;;10.00;99.90;;;;;;4974239;28;20718;-66
2023/10/31 08:22:49;;;;;;;0.30;0.30;;;10.00;99.90;;;;;;4974495;28;20207;-65
2023/10/31 08:25:18;;;;;;;1.17;0.30;;;10.10;99.90;;;;;;4973662;28;20210;-66
2023/10/31 08:27:45;;;;;;;0.30;0.30;;;10.10;99.90;;;;;;4974283;28;20234;-67
2023/10/31 08:30:12;;;;;;;0.30;0.30;;;10.10;99.90;;;;;;4975842;28;20723;-65
2023/10/31 08:32:39;;;;;;;0.27;0.27;;;10.20;99.90;;;;;;4975757;28;20298;-69
2023/10/31 08:35:07;;;;;;;0.57;0.40;;;10.20;99.90;;;;;;4973854;28;20712;-65
2023/10/31 08:37:34;;;;;;;0.30;0.30;;;10.30;99.90;;;;;;4980914;28;20226;-66
2023/10/31 08:40:03;;;;;;;0.73;0.30;;;10.30;99.90;;;;;;4973731;28;20226;-61
2023/10/31 08:42:31;;;;;;;0.33;0.33;;;10.40;99.90;;;;;;4972727;28;20200;-68
2023/10/31 08:44:58;;;;;;;0.77;0.60;;;10.50;99.90;;;;;;4978070;28;20254;-70
2023/10/31 08:47:26;;;;;;;2.10;0.50;;;10.60;99.90;;;;;;4973059;28;20633;-68
2023/10/31 08:49:53;;;;;;;1.13;0.30;;;10.60;99.90;;;;;;4972781;28;20742;-69
2023/10/31 08:52:20;;;;;;;2.43;0.97;;;10.70;99.90;;;;;;4972921;28;20575;-67
2023/10/31 08:54:47;;;;;;;0.27;0.27;;;10.80;99.90;;;;;;4972860;28;20828;-65
2023/10/31 08:57:14;;;;;;;0.20;0.20;;;10.80;99.90;;;;;;4972910;28;20230;-67
2023/10/31 08:59:43;;;;;;;1.80;0.20;;;10.70;99.90;;;;;;4972189;28;20201;-65
2023/10/31 09:02:10;;;;;;;0.60;0.20;;;10.70;99.90;;;;;;4971975;28;20200;-65
2023/10/31 09:04:37;;;;;;;0.53;0.20;;;10.70;99.90;;;;;;4972437;28;20215;-69
2023/10/31 09:07:04;;;;;;;0.50;0.50;;;10.70;99.90;;;;;;4972780;28;20211;-67
2023/10/31 09:09:31;;;;;;;0.20;0.20;;;10.80;99.90;;;;;;4972661;28;20203;-66
2023/10/31 09:11:58;;;;;;;0.30;0.20;;;10.80;99.90;;;;;;4972545;28;20269;-69
2023/10/31 09:14:25;;;;;;;0.30;0.30;;;10.80;99.90;;;;;;4973877;28;20208;-69
2023/10/31 09:16:53;;;;;;;0.30;0.20;;;10.80;99.90;;;;;;4972550;28;20270;-66
2023/10/31 09:19:20;;;;;;;0.20;0.20;;;10.90;99.90;;;;;;4972495;28;20231;-66
2023/10/31 09:21:47;;;;;;;0.50;0.20;;;11.00;99.90;;;;;;4972329;28;20622;-68
2023/10/31 09:24:14;;;;;;;0.30;0.30;;;11.00;99.90;;;;;;4972490;28;20282;-70
2023/10/31 09:26:43;;;;;;;0.23;0.20;;;11.00;99.90;;;;;;4972605;28;20630;-71
2023/10/31 09:29:11;;;;;;;1.10;0.43;;;11.00;99.90;;;;;;4975485;28;20666;-69
2023/10/31 09:31:38;;;;;;;0.40;0.40;;;11.10;99.90;;;;;;4972228;28;20703;-65
2023/10/31 09:34:07;;;;;;;0.40;0.37;;;11.10;99.90;;;;;;4972210;28;20212;-66
2023/10/31 09:36:34;;;;;;;1.90;0.30;;;11.10;99.90;;;;;;4972283;28;20265;-66
2023/10/31 09:39:01;;;;;;;0.27;0.27;;;11.10;99.90;;;;;;4972227;28;20740;-61
2023/10/31 09:41:29;;;;;;;6.30;2.83;;;11.00;99.90;;;;;;4933894;28;1294758;-60
2023/10/31 09:43:56;;;;;;;2.53;1.00;;;11.00;99.90;;;;;;4972734;28;20216;-68
2023/10/31 09:46:23;;;;;;;0.50;0.50;;;11.00;99.90;;;;;;4972941;28;20211;-67
2023/10/31 09:48:50;;;;;;;0.73;0.37;;;11.00;99.90;;;;;;4972839;28;20198;-68
2023/10/31 09:51:22;;;;;;;0.73;0.73;;;10.90;99.90;;;;;;4972725;28;20234;-67
2023/10/31 09:53:51;;;;;;;3.30;0.77;;;10.90;99.90;;;;;;4972637;28;20238;-67
2023/10/31 09:56:21;;;;;;;0.57;0.53;;;11.00;99.90;;;;;;4972749;28;20270;-68
2023/10/31 09:58:48;;;;;;;0.83;0.40;;;11.00;99.90;;;;;;4966232;28;20321;-65
2023/10/31 10:01:15;;;;;;;0.83;0.40;;;11.10;99.90;;;;;;4972543;28;20741;-66
2023/10/31 10:03:43;;;;;;;0.40;0.40;;;11.10;99.90;;;;;;4972526;28;20294;-68
2023/10/31 10:06:12;;;;;;;0.77;0.50;;;11.20;99.90;;;;;;4972840;28;20269;-67
2023/10/31 10:08:40;;;;;;;0.40;0.40;;;11.30;99.90;;;;;;4974539;28;20331;-67
2023/10/31 10:11:07;;;;;;;0.60;0.60;;;11.20;99.90;;;;;;4972575;28;20303;-62
2023/10/31 10:13:34;;;;;;;0.93;0.50;;;11.30;99.90;;;;;;4970828;28;20203;-62
2023/10/31 10:16:01;;;;;;;9.00;0.60;;;11.40;99.90;;;;;;4977786;28;20210;-62
2023/10/31 10:18:29;;;;;;;1.60;0.57;;;11.40;99.90;;;;;;4968084;28;20281;-62
2023/10/31 10:20:57;;;;;;;0.57;0.50;;;11.50;99.90;;;;;;4969401;28;20227;-62
2023/10/31 10:23:25;;;;;;;1.60;0.43;;;11.50;99.90;;;;;;4967703;28;20294;-62
2023/10/31 10:25:54;;;;;;;0.47;0.47;;;11.50;99.90;;;;;;4969635;28;20262;-62
2023/10/31 10:28:21;;;;;;;1.33;1.00;;;11.60;99.90;;;;;;4963572;28;20211;-62
2023/10/31 10:30:48;;;;;;;1.30;0.57;;;11.50;99.90;;;;;;4972051;28;20287;-62
2023/10/31 10:33:16;;;;;;;0.60;0.60;;;11.50;99.90;;;;;;4972761;28;20691;-62
2023/10/31 10:35:44;;;;;;;0.50;0.50;;;11.50;99.90;;;;;;4971470;28;20660;-62
2023/10/31 10:38:13;;;;;;;0.97;0.50;;;11.50;99.90;;;;;;4966943;28;20577;-62
2023/10/31 10:40:42;;;;;;;0.50;0.50;;;11.60;99.90;;;;;;4970397;28;20325;-62
2023/10/31 10:43:14;;;;;;;1.27;0.40;;;11.60;99.90;;;;;;4976747;28;20285;-62
2023/10/31 10:45:44;;;;;;;0.67;0.50;;;11.60;99.90;;;;;;4973565;28;20295;-62
2023/10/31 10:48:13;;;;;;;1.47;0.70;;;11.60;99.90;;;;;;4972458;28;20290;-62
2023/10/31 10:50:43;;;;;;;0.93;0.37;;;11.60;99.90;;;;;;4971732;28;20222;-62
2023/10/31 10:53:18;;;;;;;0.87;0.40;;;11.60;99.90;;;;;;4978124;28;20203;-62
2023/10/31 10:55:49;;;;;;;0.70;0.70;;;11.60;99.90;;;;;;4970822;28;20204;-62
2023/10/31 10:58:26;;;;;;;1.00;0.50;;;11.70;99.90;;;;;;4972462;28;20240;-62
2023/10/31 11:00:54;;;;;;;0.50;0.50;;;11.80;99.90;;;;;;4971463;28;20257;-62
2023/10/31 11:03:22;;;;;;;4.30;0.50;;;11.90;99.90;;;;;;4971485;28;20211;-62
2023/10/31 11:05:50;;;;;;;2.17;0.97;;;12.00;99.90;;;;;;4972390;28;20262;-62
2023/10/31 11:08:18;;;;;;;2.53;0.83;;;12.00;99.90;;;;;;4972257;28;20208;-62
2023/10/31 11:10:47;;;;;;;0.50;0.50;;;12.10;99.90;;;;;;4976172;28;20228;-62
2023/10/31 11:13:15;;;;;;;0.40;0.40;;;12.00;99.90;;;;;;4981151;28;20240;-62
2023/10/31 11:15:44;;;;;;;1.43;0.50;;;12.10;99.90;;;;;;4975237;28;20203;-62
2023/10/31 11:18:12;;;;;;;2.10;0.60;;;12.20;99.90;;;;;;4975694;28;20227;-62
2023/10/31 11:20:40;;;;;;;3.30;0.47;;;12.30;99.90;;;;;;4975742;28;20654;-62
2023/10/31 11:23:07;;;;;;;0.50;0.50;;;12.30;99.90;;;;;;4982220;28;20208;-62
2023/10/31 11:25:34;;;;;;;5.87;0.47;;;12.40;99.90;;;;;;4975140;28;20212;-62
2023/10/31 11:28:15;;;;;;;0.50;0.50;;;12.50;99.90;;;;;;4975558;28;20200;-62
2023/10/31 11:30:43;;;;;;;2.73;0.40;;;12.40;99.90;;;;;;4975267;28;20670;-62
2023/10/31 11:33:14;;;;;;;3.10;0.50;;;12.30;99.90;;;;;;4978308;28;20238;-62
2023/10/31 11:35:41;;;;;;;1.43;0.50;;;12.30;99.90;;;;;;4975216;28;20351;-62
2023/10/31 11:38:11;;;;;;;0.30;0.30;;;12.30;99.90;;;;;;4975390;28;20217;-62
2023/10/31 11:40:38;;;;;;;1.17;0.30;;;12.20;99.90;;;;;;4974006;28;20289;-62
2023/10/31 11:43:08;;;;;;;2.10;0.55;;;12.10;99.90;;;;;;4986612;28;20485;-62
2023/10/31 11:45:36;;;;;;;1.37;0.57;;;12.10;99.90;;;;;;4973896;28;20211;-63
2023/10/31 11:48:05;;;;;;;0.30;0.30;;;12.10;99.90;;;;;;4976157;28;20236;-62
2023/10/31 11:50:32;;;;;;;0.40;0.40;;;12.20;99.90;;;;;;4967848;28;20639;-62
2023/10/31 11:53:01;;;;;;;0.47;0.30;;;12.20;99.90;;;;;;4975625;28;20672;-62
2023/10/31 11:55:28;;;;;;;0.90;0.40;;;12.20;99.90;;;;;;4978381;28;20211;-62
2023/10/31 11:57:56;;;;;;;0.87;0.40;;;12.20;99.90;;;;;;4974149;28;20311;-63
2023/10/31 12:00:24;;;;;;;0.80;0.43;;;12.30;99.90;;;;;;4979130;28;20232;-62
2023/10/31 12:03:00;;;;;;;0.50;0.40;;;12.30;99.90;;;;;;4975304;28;20254;-69
2023/10/31 12:05:29;;;;;;;1.37;0.33;;;12.30;99.90;;;;;;4974043;28;20270;-71
2023/10/31 12:07:57;;;;;;;0.20;0.20;;;12.30;99.90;;;;;;4974639;28;20643;-68
2023/10/31 12:10:25;;;;;;;0.83;0.37;;;12.30;99.90;;;;;;4978794;28;20231;-72
2023/10/31 12:12:52;;;;;;;0.30;0.30;;;12.30;99.90;;;;;;4974947;28;20580;-72
2023/10/31 12:15:19;;;;;;;0.40;0.40;;;12.30;99.90;;;;;;4974214;28;20632;-72
2023/10/31 12:17:47;;;;;;;0.77;0.30;;;12.30;99.90;;;;;;4967662;28;20205;-69
2023/10/31 12:20:14;;;;;;;0.40;0.27;;;12.10;99.90;;;;;;4977838;28;20222;-71
2023/10/31 12:22:42;;;;;;;0.33;0.33;;;12.00;99.90;;;;;;4974486;28;20212;-72
2023/10/31 12:25:11;;;;;;;0.30;0.30;;;12.00;99.90;;;;;;4974441;28;20241;-71
2023/10/31 12:27:45;;;;;;;0.37;0.30;;;12.10;99.90;;;;;;4973977;28;20283;-68
2023/10/31 12:30:13;;;;;;;0.40;0.40;;;12.20;99.90;;;;;;4976889;28;20247;-70
2023/10/31 12:32:41;;;;;;;0.20;0.20;;;12.30;99.90;;;;;;4976636;28;20695;-66
2023/10/31 12:35:15;;;;;;;2.67;0.50;;;12.30;99.90;;;;;;4973971;28;20633;-71
2023/10/31 12:37:45;;;;;;;1.10;0.33;;;12.20;99.90;;;;;;4974380;28;20226;-65
2023/10/31 12:40:15;;;;;;;0.30;0.30;;;12.20;99.90;;;;;;4976940;28;20292;-71
2023/10/31 12:42:43;;;;;;;1.50;0.20;;;12.10;99.90;;;;;;4975641;28;20569;-69
2023/10/31 12:45:11;;;;;;;0.60;0.23;;;12.00;99.90;;;;;;4973649;28;20211;-71
2023/10/31 12:47:38;;;;;;;0.70;0.30;;;11.90;99.90;;;;;;4974010;28;20259;-68
2023/10/31 12:50:10;;;;;;;0.57;0.40;;;12.00;99.90;;;;;;4975345;28;20649;-70
2023/10/31 12:52:51;;;;;;;1.40;0.30;;;12.00;99.90;;;;;;4973298;28;20203;-69
2023/10/31 12:55:21;;;;;;;0.87;0.20;;;11.90;99.90;;;;;;4973484;28;20218;-72